createdAt,value
2018-05-10T00:01:18.457Z,99238.32
2018-05-10T00:03:45.937Z,99243.22
2018-05-10T00:06:13.472Z,99239.70
2018-05-10T00:08:40.971Z,99240.54
2018-05-10T00:11:08.765Z,99237.64
2018-05-10T00:13:36.252Z,99232.96
2018-05-10T00:16:03.732Z,99227.05
2018-05-10T00:18:31.265Z,99233.73
2018-05-10T00:20:58.769Z,99236.41
2018-05-10T00:23:26.317Z,99238.45
2018-05-10T00:25:53.796Z,99231.88
2018-05-10T00:28:21.286Z,99232.13
2018-05-10T00:30:48.792Z,99233.78
2018-05-10T00:33:16.289Z,99237.70
2018-05-10T00:35:43.981Z,99234.53
2018-05-10T00:38:11.503Z,99230.63
2018-05-10T00:40:38.993Z,99227.62
2018-05-10T00:43:06.529Z,99234.27
2018-05-10T00:45:34.025Z,99235.41
2018-05-10T00:48:01.569Z,99234.89
2018-05-10T00:50:29.054Z,99234.55
2018-05-10T00:52:56.546Z,99233.22
2018-05-10T00:55:24.061Z,99235.64
2018-05-10T00:57:51.551Z,99229.09
2018-05-10T01:00:19.064Z,99225.06
2018-05-10T01:02:46.545Z,99223.02
2018-05-10T01:05:14.033Z,99224.74
2018-05-10T01:07:41.545Z,99226.69
2018-05-10T01:10:09.029Z,99224.69
2018-05-10T01:12:36.740Z,99219.58
2018-05-10T01:15:04.224Z,99219.92
2018-05-10T01:17:31.736Z,99227.62
2018-05-10T01:19:59.244Z,99224.72
2018-05-10T01:22:26.729Z,99225.02
2018-05-10T01:24:54.505Z,99223.54
2018-05-10T01:27:21.994Z,99225.75
2018-05-10T01:29:49.489Z,99225.09
2018-05-10T01:32:16.993Z,99228.61
2018-05-10T01:34:56.273Z,99222.49
2018-05-10T01:37:23.784Z,99226.27
2018-05-10T01:39:51.273Z,99223.73
2018-05-10T01:42:19.080Z,99225.64
2018-05-10T01:44:46.580Z,99223.52
2018-05-10T01:47:14.067Z,99211.20
2018-05-10T01:49:41.569Z,99211.41
2018-05-10T01:52:09.076Z,99213.59
2018-05-10T01:54:36.829Z,99213.78
2018-05-10T01:57:04.317Z,99213.04
2018-05-10T01:59:31.805Z,99205.18
2018-05-10T02:01:59.317Z,99213.79
2018-05-10T02:04:26.805Z,99213.92
2018-05-10T02:06:54.323Z,99214.84
2018-05-10T02:09:21.819Z,99216.52
2018-05-10T02:11:49.337Z,99219.39
2018-05-10T02:14:16.853Z,99224.37
2018-05-10T02:16:44.349Z,99234.67
2018-05-10T02:19:12.044Z,99239.70
2018-05-10T02:21:39.539Z,99237.57
2018-05-10T02:24:07.050Z,99244.34
2018-05-10T02:26:34.561Z,99245.23
2018-05-10T02:29:02.041Z,99240.27
2018-05-10T02:31:29.803Z,99247.47
2018-05-10T02:33:57.295Z,99249.28
2018-05-10T02:36:24.787Z,99253.43
2018-05-10T02:38:52.313Z,99258.73
2018-05-10T02:41:19.801Z,99257.45
2018-05-10T02:43:47.456Z,99254.08
2018-05-10T02:46:14.947Z,99263.98
2018-05-10T02:48:42.434Z,99267.49
2018-05-10T02:51:09.952Z,99269.39
2018-05-10T02:53:37.449Z,99269.22
2018-05-10T02:56:05.216Z,99271.08
2018-05-10T02:58:32.800Z,99277.56
2018-05-10T03:01:00.222Z,99273.55
2018-05-10T03:03:27.745Z,99281.08
2018-05-10T03:05:55.225Z,99281.07
2018-05-10T03:08:22.974Z,99274.38
2018-05-10T03:10:50.466Z,99276.55
2018-05-10T03:13:17.959Z,99276.77
2018-05-10T03:15:45.477Z,99277.05
2018-05-10T03:18:12.969Z,99280.41
2018-05-10T03:20:40.836Z,99280.59
2018-05-10T03:23:08.317Z,99279.82
2018-05-10T03:25:35.809Z,99278.60
2018-05-10T03:28:03.325Z,99275.10
2018-05-10T03:30:30.817Z,99277.20
2018-05-10T03:32:58.441Z,99285.30
2018-05-10T03:35:25.945Z,99285.84
2018-05-10T03:37:53.433Z,99286.04
2018-05-10T03:40:20.966Z,99282.88
2018-05-10T03:42:48.469Z,99284.66
2018-05-10T03:45:15.986Z,99285.34
2018-05-10T03:47:43.471Z,99283.27
2018-05-10T03:50:10.948Z,99278.33
2018-05-10T03:52:38.461Z,99277.64
2018-05-10T03:55:05.981Z,99283.47
2018-05-10T03:57:33.505Z,99280.79
2018-05-10T04:00:01.009Z,99275.80
2018-05-10T04:02:40.627Z,99273.42
2018-05-10T04:05:20.088Z,99277.22
2018-05-10T04:07:59.729Z,99286.05
2018-05-10T04:10:39.190Z,99290.72
2018-05-10T04:13:06.737Z,99295.39
2018-05-10T04:15:34.229Z,99297.33
2018-05-10T04:18:01.745Z,99298.73
2018-05-10T04:20:29.252Z,99309.08
2018-05-10T04:22:56.741Z,99318.20
2018-05-10T04:25:24.435Z,99324.47
2018-05-10T04:27:51.969Z,99328.09
2018-05-10T04:30:20.357Z,99330.58
2018-05-10T04:32:47.893Z,99340.41
2018-05-10T04:35:15.377Z,99337.91
2018-05-10T04:37:43.089Z,99345.70
2018-05-10T04:40:10.584Z,99342.41
2018-05-10T04:42:38.077Z,99350.91
2018-05-10T04:45:05.586Z,99361.34
2018-05-10T04:47:33.077Z,99363.70
2018-05-10T04:50:00.745Z,99370.92
2018-05-10T04:52:28.239Z,99371.66
2018-05-10T04:54:55.725Z,99370.72
2018-05-10T04:57:23.250Z,99377.36
2018-05-10T04:59:50.742Z,99386.09
2018-05-10T05:02:18.501Z,99391.14
2018-05-10T05:04:45.993Z,99382.09
2018-05-10T05:07:13.481Z,99382.42
2018-05-10T05:09:41.040Z,99384.83
2018-05-10T05:12:08.539Z,99392.58
2018-05-10T05:14:36.161Z,99391.48
2018-05-10T05:17:03.645Z,99380.83
2018-05-10T05:19:31.151Z,99375.48
2018-05-10T05:21:58.697Z,99381.22
2018-05-10T05:24:26.189Z,99384.12
2018-05-10T05:26:53.976Z,99379.74
2018-05-10T05:29:21.421Z,99390.53
2018-05-10T05:31:48.901Z,99391.50
2018-05-10T05:34:16.451Z,99389.52
2018-05-10T05:36:43.948Z,99386.23
2018-05-10T05:39:11.464Z,99394.69
2018-05-10T05:41:38.949Z,99401.55
2018-05-10T05:44:06.434Z,99396.06
2018-05-10T05:46:33.941Z,99402.52
2018-05-10T05:49:01.425Z,99412.25
2018-05-10T05:51:28.941Z,99421.48
2018-05-10T05:53:56.425Z,99427.09
2018-05-10T05:56:23.910Z,99430.72
2018-05-10T05:58:51.429Z,99435.22
2018-05-10T06:01:18.913Z,99435.45
2018-05-10T06:03:46.593Z,99446.44
2018-05-10T06:06:14.078Z,99452.70
2018-05-10T06:08:41.638Z,99459.58
2018-05-10T06:11:09.153Z,99477.50
2018-05-10T06:13:36.645Z,99482.56
2018-05-10T06:16:04.463Z,99488.16
2018-05-10T06:18:31.857Z,99495.41
2018-05-10T06:20:59.366Z,99497.98
2018-05-10T06:23:26.873Z,99504.95
2018-05-10T06:25:54.365Z,99510.81
2018-05-10T06:28:21.988Z,99519.05
2018-05-10T06:30:49.489Z,99526.64
2018-05-10T06:33:17.002Z,99534.45
2018-05-10T06:35:44.508Z,99545.72
2018-05-10T06:38:12.013Z,99554.05
2018-05-10T06:40:39.648Z,99555.88
2018-05-10T06:43:07.138Z,99569.31
2018-05-10T06:45:34.645Z,99569.67
2018-05-10T06:48:02.185Z,99571.84
2018-05-10T06:50:29.700Z,99583.83
2018-05-10T06:52:57.212Z,99579.64
2018-05-10T06:55:24.701Z,99590.97
2018-05-10T06:57:52.220Z,99596.02
2018-05-10T07:00:19.728Z,99594.40
2018-05-10T07:02:47.216Z,99600.65
2018-05-10T07:05:14.773Z,99602.94
2018-05-10T07:07:42.257Z,99603.80
2018-05-10T07:10:09.772Z,99604.07
2018-05-10T07:12:37.374Z,99601.45
2018-05-10T07:15:04.863Z,99600.97
2018-05-10T07:17:32.414Z,99601.42
2018-05-10T07:19:59.901Z,99606.22
2018-05-10T07:22:27.403Z,99607.07
2018-05-10T07:24:55.133Z,99598.35
2018-05-10T07:27:22.617Z,99598.96
2018-05-10T07:29:50.597Z,99602.26
2018-05-10T07:32:18.093Z,99606.97
2018-05-10T07:34:45.582Z,99605.42
2018-05-10T07:37:13.093Z,99610.69
2018-05-10T07:39:40.590Z,99608.30
2018-05-10T07:42:08.347Z,99613.90
2018-05-10T07:44:35.777Z,99610.61
2018-05-10T07:47:03.297Z,99617.98
2018-05-10T07:49:30.816Z,99616.69
2018-05-10T07:51:58.301Z,99614.57
2018-05-10T07:54:26.100Z,99622.13
2018-05-10T07:56:53.595Z,99620.70
2018-05-10T07:59:21.080Z,99625.59
2018-05-10T08:01:48.590Z,99625.13
2018-05-10T08:04:16.085Z,99630.88
2018-05-10T08:06:43.613Z,99630.55
2018-05-10T08:09:11.097Z,99635.92
2018-05-10T08:11:38.611Z,99636.78
2018-05-10T08:14:06.117Z,99638.88
2018-05-10T08:16:33.606Z,99637.00
2018-05-10T08:19:01.145Z,99639.95
2018-05-10T08:21:30.693Z,99638.88
2018-05-10T08:23:58.185Z,99648.22
2018-05-10T08:26:25.704Z,99644.35
2018-05-10T08:28:53.202Z,99646.98
2018-05-10T08:31:20.755Z,99650.52
2018-05-10T08:33:48.252Z,99652.19
2018-05-10T08:36:15.756Z,99654.62
2018-05-10T08:38:43.265Z,99658.39
2018-05-10T08:41:10.753Z,99655.94
2018-05-10T08:43:38.487Z,99661.46
2018-05-10T08:46:05.981Z,99655.50
2018-05-10T08:48:33.485Z,99654.70
2018-05-10T08:51:01.002Z,99648.02
2018-05-10T08:53:28.498Z,99654.36
2018-05-10T08:55:56.222Z,99646.08
2018-05-10T08:58:23.717Z,99650.97
2018-05-10T09:00:51.224Z,99640.80
2018-05-10T09:03:18.737Z,99647.04
2018-05-10T09:05:46.249Z,99644.52
2018-05-10T09:08:14.182Z,99647.04
2018-05-10T09:10:41.671Z,99645.49
2018-05-10T09:13:09.174Z,99645.83
2018-05-10T09:15:36.689Z,99654.19
2018-05-10T09:18:04.197Z,99650.39
2018-05-10T09:20:31.945Z,99653.70
2018-05-10T09:22:59.547Z,99651.55
2018-05-10T09:25:27.033Z,99662.01
2018-05-10T09:27:54.561Z,99664.26
2018-05-10T09:30:22.047Z,99671.77
2018-05-10T09:32:49.573Z,99678.58
2018-05-10T09:35:17.081Z,99694.41
2018-05-10T09:37:44.567Z,99697.72
2018-05-10T09:40:12.107Z,99708.84
2018-05-10T09:42:39.603Z,99714.91
2018-05-10T09:45:07.574Z,99709.30
2018-05-10T09:47:35.057Z,99718.58
2018-05-10T09:50:02.557Z,99727.30
2018-05-10T09:52:30.097Z,99733.15
2018-05-10T09:54:57.606Z,99736.77
2018-05-10T09:57:25.126Z,99738.90
2018-05-10T09:59:52.762Z,99754.44
2018-05-10T10:02:20.237Z,99752.62
2018-05-10T10:04:47.752Z,99763.00
2018-05-10T10:07:15.241Z,99767.92
2018-05-10T10:09:42.873Z,99779.06
2018-05-10T10:12:10.357Z,99778.12
2018-05-10T10:14:37.850Z,99786.02
2018-05-10T10:17:05.356Z,99794.01
2018-05-10T10:19:33.049Z,99795.31
2018-05-10T10:22:00.592Z,99796.31
2018-05-10T10:24:28.099Z,99805.81
2018-05-10T10:26:55.585Z,99800.38
2018-05-10T10:29:23.101Z,99801.22
2018-05-10T10:31:50.644Z,99811.56
2018-05-10T10:34:18.426Z,99809.55
2018-05-10T10:36:45.915Z,99816.61
2018-05-10T10:39:13.405Z,99818.08
2018-05-10T10:41:41.383Z,99820.88
2018-05-10T10:44:08.925Z,99828.33
2018-05-10T10:46:36.762Z,99833.98
2018-05-10T10:49:04.251Z,99841.08
2018-05-10T10:51:31.742Z,99847.09
2018-05-10T10:53:59.372Z,99856.29
2018-05-10T10:56:26.745Z,99858.31
2018-05-10T10:58:54.283Z,99863.83
2018-05-10T11:01:21.769Z,99871.48
2018-05-10T11:03:49.270Z,99872.43
2018-05-10T11:06:16.778Z,99876.06
2018-05-10T11:08:44.256Z,99877.21
2018-05-10T11:11:11.840Z,99881.59
2018-05-10T11:13:39.341Z,99887.37
2018-05-10T11:16:06.833Z,99881.84
2018-05-10T11:18:34.341Z,99893.30
2018-05-10T11:21:01.824Z,99892.48
2018-05-10T11:23:29.430Z,99893.12
2018-05-10T11:25:56.921Z,99891.42
2018-05-10T11:28:24.421Z,99896.66
2018-05-10T11:30:51.929Z,99895.86
2018-05-10T11:33:19.722Z,99907.60
2018-05-10T11:35:47.186Z,99909.17
2018-05-10T11:38:14.681Z,99910.12
2018-05-10T11:40:42.179Z,99910.84
2018-05-10T11:43:09.706Z,99921.95
2018-05-10T11:45:37.195Z,99923.59
2018-05-10T11:48:04.726Z,99930.58
2018-05-10T11:50:32.213Z,99927.31
2018-05-10T11:52:59.701Z,99935.59
2018-05-10T11:55:27.214Z,99933.09
2018-05-10T11:57:54.698Z,99940.20
2018-05-10T12:00:22.237Z,99937.47
2018-05-10T12:02:49.725Z,99937.26
2018-05-10T12:05:17.213Z,99935.02
2018-05-10T12:07:44.740Z,99940.91
2018-05-10T12:10:12.230Z,99948.08
2018-05-10T12:12:39.761Z,99949.20
2018-05-10T12:15:07.254Z,99947.06
2018-05-10T12:17:34.738Z,99959.84
2018-05-10T12:20:02.259Z,99954.28
2018-05-10T12:22:29.761Z,99963.98
2018-05-10T12:24:57.281Z,99964.59
2018-05-10T12:27:24.784Z,99964.25
2018-05-10T12:29:52.281Z,99964.43
2018-05-10T12:32:19.793Z,99978.75
2018-05-10T12:34:47.289Z,99978.61
2018-05-10T12:37:14.945Z,99988.52
2018-05-10T12:39:42.430Z,99988.05
2018-05-10T12:42:09.928Z,99992.81
2018-05-10T12:44:37.482Z,99989.63
2018-05-10T12:47:04.994Z,99996.88
2018-05-10T12:49:33.113Z,99998.70
2018-05-10T12:52:00.617Z,100006.91
2018-05-10T12:54:28.109Z,100007.72
2018-05-10T12:56:55.648Z,100014.12
2018-05-10T12:59:23.140Z,100018.99
2018-05-10T13:01:50.676Z,100027.88
2018-05-10T13:04:18.165Z,100034.62
2018-05-10T13:06:45.700Z,100038.88
2018-05-10T13:09:13.191Z,100045.25
2018-05-10T13:11:40.693Z,100048.95
2018-05-10T13:14:08.243Z,100056.76
2018-05-10T13:16:35.741Z,100057.09
2018-05-10T13:19:03.229Z,100060.08
2018-05-10T13:21:30.749Z,100066.66
2018-05-10T13:23:58.241Z,100071.64
2018-05-10T13:26:25.761Z,100082.43
2018-05-10T13:28:53.354Z,100089.27
2018-05-10T13:31:20.768Z,100087.70
2018-05-10T13:33:48.285Z,100098.39
2018-05-10T13:36:15.789Z,100099.05
2018-05-10T13:38:43.321Z,100104.02
2018-05-10T13:41:10.810Z,100109.35
2018-05-10T13:43:38.332Z,100111.13
2018-05-10T13:46:05.843Z,100122.67
2018-05-10T13:48:33.338Z,100130.28
2018-05-10T13:51:01.189Z,100125.98
2018-05-10T13:53:28.677Z,100134.13
2018-05-10T13:55:56.177Z,100139.19
2018-05-10T13:58:23.706Z,100149.16
2018-05-10T14:00:51.191Z,100147.64
2018-05-10T14:03:18.945Z,100157.47
2018-05-10T14:05:46.425Z,100148.67
2018-05-10T14:08:13.929Z,100153.43
2018-05-10T14:10:41.477Z,100154.34
2018-05-10T14:13:08.963Z,100160.62
2018-05-10T14:15:37.205Z,100157.33
2018-05-10T14:18:04.694Z,100160.56
2018-05-10T14:20:32.181Z,100168.22
2018-05-10T14:22:59.688Z,100169.04
2018-05-10T14:25:27.241Z,100177.91
2018-05-10T14:27:54.717Z,100181.98
2018-05-10T14:30:22.221Z,100179.10
2018-05-10T14:32:49.754Z,100188.80
2018-05-10T14:35:17.257Z,100186.16
2018-05-10T14:37:44.742Z,100191.47
2018-05-10T14:40:12.269Z,100192.43
2018-05-10T14:42:39.754Z,100193.86
2018-05-10T14:45:07.251Z,100193.49
2018-05-10T14:47:34.753Z,100199.50
2018-05-10T14:50:02.237Z,100203.13
2018-05-10T14:52:29.729Z,100201.72
2018-05-10T14:54:57.241Z,100200.64
2018-05-10T14:57:24.721Z,100208.45
2018-05-10T14:59:52.270Z,100210.04
2018-05-10T15:02:19.810Z,100204.34
2018-05-10T15:04:47.330Z,100206.02
2018-05-10T15:07:14.822Z,100212.02
2018-05-10T15:09:42.345Z,100215.64
2018-05-10T15:12:09.820Z,100221.66
2018-05-10T15:14:37.324Z,100230.44
2018-05-10T15:17:05.098Z,100234.09
2018-05-10T15:19:32.650Z,100239.94
2018-05-10T15:22:00.141Z,100237.59
2018-05-10T15:24:27.785Z,100240.20
2018-05-10T15:26:55.266Z,100239.77
2018-05-10T15:29:22.773Z,100245.23
2018-05-10T15:31:50.279Z,100246.77
2018-05-10T15:34:17.780Z,100242.87
2018-05-10T15:36:45.737Z,100240.95
2018-05-10T15:39:13.393Z,100244.95
2018-05-10T15:41:40.884Z,100247.45
2018-05-10T15:44:08.398Z,100245.10
2018-05-10T15:46:35.882Z,100249.75
2018-05-10T15:49:03.501Z,100247.80
2018-05-10T15:51:31.025Z,100248.31
2018-05-10T15:53:58.526Z,100261.95
2018-05-10T15:56:26.036Z,100257.25
2018-05-10T15:58:53.532Z,100266.95
2018-05-10T16:01:21.377Z,100261.34
2018-05-10T16:03:48.871Z,100265.76
2018-05-10T16:06:16.353Z,100267.03
2018-05-10T16:08:43.885Z,100267.11
2018-05-10T16:11:11.383Z,100269.41
2018-05-10T16:13:38.965Z,100273.01
2018-05-10T16:16:06.481Z,100275.23
2018-05-10T16:18:34.205Z,100270.54
2018-05-10T16:21:01.726Z,100271.61
2018-05-10T16:23:29.406Z,100273.55
2018-05-10T16:25:57.176Z,100283.31
2018-05-10T16:28:24.740Z,100289.81
2018-05-10T16:30:52.285Z,100295.23
2018-05-10T16:33:19.905Z,100298.70
2018-05-10T16:35:47.457Z,100299.70
2018-05-10T16:38:15.405Z,100300.77
2018-05-10T16:40:44.509Z,100301.61
2018-05-10T16:43:12.169Z,100309.97
2018-05-10T16:45:39.678Z,100302.04
2018-05-10T16:48:07.165Z,100302.91
2018-05-10T16:50:34.900Z,100302.80
2018-05-10T16:53:02.779Z,100302.41
2018-05-10T16:55:30.273Z,100312.14
2018-05-10T16:57:57.793Z,100320.77
2018-05-10T17:00:25.298Z,100327.77
2018-05-10T17:02:53.071Z,100327.43
2018-05-10T17:05:20.576Z,100331.77
2018-05-10T17:07:48.074Z,100337.40
2018-05-10T17:10:15.644Z,100334.48
2018-05-10T17:12:43.137Z,100334.70
2018-05-10T17:15:10.809Z,100338.38
2018-05-10T17:17:38.399Z,100343.06
2018-05-10T17:20:05.972Z,100346.78
2018-05-10T17:22:33.489Z,100356.05
2018-05-10T17:25:01.668Z,100361.08
2018-05-10T17:27:29.218Z,100360.64
2018-05-10T17:29:56.713Z,100365.92
2018-05-10T17:32:24.202Z,100372.33
2018-05-10T17:34:51.714Z,100374.98
2018-05-10T17:37:19.211Z,100381.72
2018-05-10T17:39:46.747Z,100386.23
2018-05-10T17:42:14.263Z,100380.69
2018-05-10T17:44:41.758Z,100391.97
2018-05-10T17:47:09.327Z,100391.86
2018-05-10T17:49:37.178Z,100395.16
2018-05-10T17:52:04.905Z,100402.34
2018-05-10T17:54:32.410Z,100404.12
2018-05-10T17:56:59.893Z,100405.72
2018-05-10T17:59:27.420Z,100411.83
2018-05-10T18:01:54.909Z,100416.19
2018-05-10T18:04:22.474Z,100417.28
2018-05-10T18:06:49.962Z,100420.78
2018-05-10T18:09:17.445Z,100421.03
2018-05-10T18:11:44.991Z,100423.39
2018-05-10T18:14:12.520Z,100434.64
2018-05-10T18:16:40.082Z,100439.22
2018-05-10T18:19:07.581Z,100440.09
2018-05-10T18:21:35.069Z,100449.33
2018-05-10T18:24:03.373Z,100450.19
2018-05-10T18:26:31.889Z,100446.38
2018-05-10T18:28:59.425Z,100460.98
2018-05-10T18:31:26.932Z,100461.19
2018-05-10T18:33:55.265Z,100461.89
2018-05-10T18:36:22.880Z,100464.81
2018-05-10T18:38:50.408Z,100471.49
2018-05-10T18:41:18.093Z,100482.62
2018-05-10T18:43:45.641Z,100480.29
2018-05-10T18:46:13.161Z,100491.33
2018-05-10T18:48:40.711Z,100488.61
2018-05-10T18:51:08.232Z,100495.39
2018-05-10T18:53:35.787Z,100497.13
2018-05-10T18:56:03.348Z,100503.52
2018-05-10T18:58:30.879Z,100504.83
2018-05-10T19:00:58.704Z,100511.92
2018-05-10T19:03:26.693Z,100511.06
2018-05-10T19:05:54.873Z,100517.88
2018-05-10T19:08:22.456Z,100525.37
2018-05-10T19:10:50.220Z,100531.48
2018-05-10T19:13:17.962Z,100536.97
2018-05-10T19:15:45.509Z,100540.56
2018-05-10T19:18:14.060Z,100545.02
2018-05-10T19:20:41.580Z,100543.16
2018-05-10T19:23:09.097Z,100553.97
2018-05-10T19:25:36.666Z,100559.34
2018-05-10T19:28:04.238Z,100553.22
2018-05-10T19:30:31.815Z,100565.61
2018-05-10T19:33:00.193Z,100561.90
2018-05-10T19:35:27.761Z,100569.42
2018-05-10T19:37:55.549Z,100570.48
2018-05-10T19:40:23.449Z,100581.80
2018-05-10T19:42:51.323Z,100579.80
2018-05-10T19:45:19.068Z,100584.66
2018-05-10T19:47:46.646Z,100588.45
2018-05-10T19:50:14.255Z,100593.16
2018-05-10T19:52:42.661Z,100595.39
2018-05-10T19:55:10.981Z,100602.05
2018-05-10T19:57:39.016Z,100605.33
2018-05-10T20:00:07.002Z,100613.75
2018-05-10T20:02:34.593Z,100608.56
2018-05-10T20:05:02.195Z,100609.80
2018-05-10T20:07:30.203Z,100615.74
2018-05-10T20:09:57.896Z,100614.20
2018-05-10T20:12:25.437Z,100617.80
2018-05-10T20:14:52.975Z,100617.38
2018-05-10T20:17:20.604Z,100620.51
2018-05-10T20:19:48.171Z,100630.55
2018-05-10T20:22:16.399Z,100629.83
2018-05-10T20:24:43.905Z,100630.17
2018-05-10T20:27:11.570Z,100633.41
2018-05-10T20:29:39.180Z,100638.31
2018-05-10T20:32:06.887Z,100641.61
2018-05-10T20:34:34.385Z,100639.03
2018-05-10T20:37:01.890Z,100645.66
2018-05-10T20:39:29.464Z,100645.45
2018-05-10T20:41:56.963Z,100649.36
2018-05-10T20:44:24.751Z,100648.89
2018-05-10T20:46:54.413Z,100649.70
2018-05-10T20:49:22.851Z,100648.98
2018-05-10T20:51:50.399Z,100652.91
2018-05-10T20:54:17.917Z,100654.84
2018-05-10T20:56:45.467Z,100658.81
2018-05-10T20:59:12.986Z,100659.22
2018-05-10T21:01:40.477Z,100668.15
2018-05-10T21:04:07.994Z,100670.27
2018-05-10T21:06:35.490Z,100669.11
2018-05-10T21:09:03.105Z,100673.33
2018-05-10T21:11:30.605Z,100674.00
2018-05-10T21:13:58.102Z,100672.94
2018-05-10T21:16:25.710Z,100670.20
2018-05-10T21:18:53.164Z,100674.20
2018-05-10T21:21:21.556Z,100682.59
2018-05-10T21:23:49.047Z,100687.15
2018-05-10T21:26:16.617Z,100678.61
2018-05-10T21:28:44.189Z,100688.89
2018-05-10T21:31:11.680Z,100688.47
2018-05-10T21:33:39.213Z,100690.45
2018-05-10T21:36:06.699Z,100692.22
2018-05-10T21:38:34.193Z,100692.87
2018-05-10T21:41:01.711Z,100684.94
2018-05-10T21:43:29.205Z,100692.75
2018-05-10T21:45:56.865Z,100687.02
2018-05-10T21:48:24.364Z,100692.21
2018-05-10T21:50:51.845Z,100695.83
2018-05-10T21:53:19.441Z,100695.91
2018-05-10T21:55:46.857Z,100699.52
2018-05-10T21:58:14.781Z,100702.27
2018-05-10T22:00:42.269Z,100705.75
2018-05-10T22:03:09.749Z,100706.59
2018-05-10T22:05:37.441Z,100698.06
2018-05-10T22:08:04.930Z,100705.43
2018-05-10T22:10:32.506Z,100705.73
2018-05-10T22:13:00.013Z,100703.59
2018-05-10T22:15:27.552Z,100706.11
2018-05-10T22:17:55.075Z,100706.18
2018-05-10T22:20:22.553Z,100712.42
2018-05-10T22:22:50.041Z,100710.41
2018-05-10T22:25:17.549Z,100710.96
2018-05-10T22:27:45.030Z,100710.16
2018-05-10T22:30:12.560Z,100711.17
2018-05-10T22:32:40.053Z,100709.78
2018-05-10T22:35:07.542Z,100711.08
2018-05-10T22:37:35.069Z,100713.73
2018-05-10T22:40:02.559Z,100711.26
2018-05-10T22:42:30.226Z,100711.95
2018-05-10T22:44:57.707Z,100708.59
2018-05-10T22:47:25.210Z,100713.70
2018-05-10T22:49:52.717Z,100718.61
2018-05-10T22:52:20.217Z,100721.78
2018-05-10T22:54:47.978Z,100723.73
2018-05-10T22:57:15.456Z,100727.19
2018-05-10T22:59:42.964Z,100727.42
2018-05-10T23:02:10.904Z,100724.77
2018-05-10T23:04:38.478Z,100727.56
2018-05-10T23:07:05.964Z,100731.11
2018-05-10T23:09:33.466Z,100722.75
2018-05-10T23:12:00.962Z,100730.06
2018-05-10T23:14:28.637Z,100730.77
2018-05-10T23:16:56.120Z,100738.14
2018-05-10T23:19:23.597Z,100735.35
2018-05-10T23:21:51.121Z,100734.83
2018-05-10T23:24:18.643Z,100731.72
2018-05-10T23:26:46.161Z,100734.80
2018-05-10T23:29:13.687Z,100732.91
2018-05-10T23:31:41.177Z,100732.87
2018-05-10T23:34:08.677Z,100728.72
2018-05-10T23:36:36.181Z,100729.35
2018-05-10T23:39:03.846Z,100734.16
2018-05-10T23:41:31.332Z,100724.00
2018-05-10T23:43:58.835Z,100726.14
2018-05-10T23:46:26.341Z,100726.83
2018-05-10T23:48:53.821Z,100715.80
2018-05-10T23:51:21.593Z,100716.02
2018-05-10T23:53:49.097Z,100711.91
2018-05-10T23:56:16.589Z,100721.34
2018-05-10T23:58:44.107Z,100718.82
